Time;durP1;ratioP1;P1;durP2;ratioP2;P2;SDS_P1;SDS_P2;PMS_P1;PMS_P2;Temp;Humidity;BMP_temperature;BMP_pressure;BME280_temperature;BME280_humidity;BME280_pressure;Samples;Min_cycle;Max_cycle;Signal;HPM_P1;HPM_P2
2022/01/10 00:00:47;;;;;;;59.05;23.80;;;;;;;7.44;83.59;98349.22;3123409;28;20152;-69
2022/01/10 00:02:19;;;;;;;58.90;24.90;;;;;;;7.42;83.57;98361.41;3123088;28;20076;-70
2022/01/10 00:03:51;;;;;;;58.22;22.73;;;;;;;7.42;83.51;98356.22;3123688;28;20127;-69
2022/01/10 00:05:25;;;;;;;62.13;25.30;;;;;;;7.44;83.81;98356.97;3123269;28;20049;-68
2022/01/10 00:06:57;;;;;;;51.47;23.52;;;;;;;7.42;83.69;98361.41;3119794;28;20048;-68
2022/01/10 00:08:30;;;;;;;54.35;23.50;;;;;;;7.42;83.57;98358.81;3122752;28;20518;-68
2022/01/10 00:10:02;;;;;;;55.05;22.63;;;;;;;7.40;83.66;98354.66;3121104;28;20091;-68
2022/01/10 00:11:34;;;;;;;51.90;21.52;;;;;;;7.41;83.68;98357.16;3118657;28;20724;-68
2022/01/10 00:13:06;;;;;;;48.38;22.65;;;;;;;7.40;83.80;98358.09;3123037;28;20481;-68
2022/01/10 00:14:38;;;;;;;55.63;23.48;;;;;;;7.36;83.54;98350.56;3122656;28;20053;-68
2022/01/10 00:16:10;;;;;;;52.65;21.83;;;;;;;7.40;83.39;98363.25;3121024;28;20081;-68
2022/01/10 00:17:43;;;;;;;53.92;22.52;;;;;;;7.40;83.56;98367.63;3123759;28;20122;-68
2022/01/10 00:19:15;;;;;;;52.17;21.98;;;;;;;7.38;83.46;98359.91;3120917;28;20075;-67
2022/01/10 00:20:48;;;;;;;54.22;22.40;;;;;;;7.38;83.43;98361.69;3122532;28;20048;-68
2022/01/10 00:22:23;;;;;;;50.22;21.17;;;;;;;7.37;83.46;98368.63;3123142;28;20231;-67
2022/01/10 00:23:55;;;;;;;48.95;21.50;;;;;;;7.37;83.68;98367.78;3121137;28;20049;-67
2022/01/10 00:25:27;;;;;;;53.20;22.25;;;;;;;7.37;83.59;98373.78;3125718;28;20053;-67
2022/01/10 00:26:59;;;;;;;47.80;20.02;;;;;;;7.37;83.72;98367.78;3121761;28;20828;-67
2022/01/10 00:28:31;;;;;;;45.55;20.23;;;;;;;7.37;83.52;98367.78;3120986;28;20048;-67
2022/01/10 00:30:03;;;;;;;45.40;21.05;;;;;;;6.94;83.72;98303.63;3122306;28;20075;-67
2022/01/10 00:31:35;;;;;;;48.20;20.90;;;;;;;7.35;83.63;98370.44;3119831;28;20049;-68
2022/01/10 00:33:07;;;;;;;50.75;21.27;;;;;;;7.33;83.71;98374.84;3121996;28;20209;-68
2022/01/10 00:34:39;;;;;;;47.63;21.13;;;;;;;7.26;83.77;98355.41;3115838;28;20163;-68
2022/01/10 00:36:13;;;;;;;50.00;20.88;;;;;;;7.36;83.60;98366.91;3119074;28;20064;-68
2022/01/10 00:37:45;;;;;;;45.97;20.20;;;;;;;7.32;83.91;98364.59;3118866;28;20049;-68
2022/01/10 00:39:18;;;;;;;55.58;22.20;;;;;;;7.36;83.68;98364.34;3112393;28;20111;-68
2022/01/10 00:40:50;;;;;;;54.38;20.42;;;;;;;7.38;83.95;98366.84;3119744;28;20055;-67
2022/01/10 00:42:22;;;;;;;48.20;20.83;;;;;;;7.39;83.76;98358.16;3113260;28;20100;-69
2022/01/10 00:43:54;;;;;;;54.75;21.88;;;;;;;7.20;83.71;98330.69;3114843;28;20154;-69
2022/01/10 00:45:28;;;;;;;45.78;20.33;;;;;;;7.43;83.88;98357.09;3119737;28;20114;-70
2022/01/10 00:46:59;;;;;;;;;;;;;;;7.06;83.65;98328.84;3112256;28;20089;-68
2022/01/10 00:48:31;;;;;;;56.45;20.15;;;;;;;7.30;84.10;98349.13;3116354;28;19924;-69
2022/01/10 00:50:04;;;;;;;44.85;19.27;;;;;;;7.35;84.07;98347.13;3121968;28;20513;-69
2022/01/10 00:51:37;;;;;;;50.70;21.27;;;;;;;7.36;83.94;98340.19;3126837;28;20501;-69
2022/01/10 00:53:09;;;;;;;53.13;21.50;;;;;;;7.39;83.75;98350.38;3125092;28;20063;-69
2022/01/10 00:54:40;;;;;;;47.35;20.77;;;;;;;7.40;83.81;98342.53;3122824;28;20045;-69
2022/01/10 00:56:12;;;;;;;53.28;21.17;;;;;;;7.41;83.74;98343.38;3122470;28;20110;-69
2022/01/10 00:57:44;;;;;;;50.35;20.25;;;;;;;7.40;83.87;98347.72;3124450;28;20048;-70
2022/01/10 00:59:16;;;;;;;48.08;20.77;;;;;;;7.40;83.88;98339.94;3126296;28;20057;-70
2022/01/10 01:00:48;;;;;;;51.20;21.10;;;;;;;7.40;83.85;98345.13;3126067;28;20118;-68
2022/01/10 01:02:21;;;;;;;57.08;21.90;;;;;;;7.41;83.69;98341.63;3123916;28;20122;-69
2022/01/10 01:03:53;;;;;;;51.75;21.35;;;;;;;7.41;83.88;98339.03;3123363;28;20097;-69
2022/01/10 01:05:26;;;;;;;54.33;21.67;;;;;;;7.38;83.90;98331.44;3119429;28;20160;-68
2022/01/10 01:06:59;;;;;;;49.42;19.05;;;;;;;7.40;83.83;98332.19;3123979;28;20540;-68
2022/01/10 01:08:33;;;;;;;49.35;19.00;;;;;;;7.37;83.89;98329.75;3126680;28;20060;-68
2022/01/10 01:10:26;;;;;;;46.83;19.75;;;;;;;7.34;83.71;98319.59;3125487;28;20053;-68
2022/01/10 01:13:53;;;;;;;41.60;18.90;;;;;;;7.33;83.84;98315.31;3124065;28;20073;-71
2022/01/10 01:15:30;;;;;;;45.42;19.42;;;;;;;7.34;83.89;98314.41;3125032;28;20469;-68
2022/01/10 01:17:11;;;;;;;48.33;20.70;;;;;;;7.35;84.09;98313.47;3125754;28;20045;-68
2022/01/10 01:19:13;;;;;;;51.20;20.35;;;;;;;7.28;83.91;98307.81;3124933;28;20045;-68
2022/01/10 01:24:00;;;;;;;49.33;20.30;;;;;;;7.22;84.13;98310.72;3125081;28;20165;-69
2022/01/10 01:24:28;;;;;;;55.63;21.48;;;;;;;7.21;84.24;98300.44;3126153;28;20048;-69
2022/01/10 01:26:01;;;;;;;52.20;20.33;;;;;;;7.21;84.11;98288.34;3116341;28;20058;-69
2022/01/10 01:27:33;;;;;;;55.25;21.15;;;;;;;7.20;84.28;98288.44;3123675;28;20053;-70
2022/01/10 01:29:05;;;;;;;58.70;22.00;;;;;;;7.28;84.04;98299.22;3125973;28;20137;-69
2022/01/10 01:30:37;;;;;;;44.72;19.02;;;;;;;7.30;84.23;98299.94;3126395;28;20115;-69
2022/01/10 01:32:09;;;;;;;49.47;20.17;;;;;;;7.25;84.08;98299.38;3123542;28;20052;-70
2022/01/10 01:33:41;;;;;;;50.00;19.55;;;;;;;7.15;84.30;98286.09;3126270;28;20048;-70
2022/01/10 01:35:12;;;;;;;51.80;20.15;;;;;;;7.03;84.10;98263.47;3126365;28;20075;-70
2022/01/10 01:36:48;;;;;;;50.72;20.60;;;;;;;7.22;84.29;98291.78;3123983;28;20049;-71
2022/01/10 01:38:22;;;;;;;52.30;21.40;;;;;;;7.27;83.89;98300.09;3126211;28;20055;-70
2022/01/10 01:39:54;;;;;;;50.13;20.17;;;;;;;7.26;84.22;98298.44;3123846;28;20049;-70
2022/01/10 01:41:37;;;;;;;47.65;20.52;;;;;;;7.26;84.19;98301.03;3126074;28;20274;-69
2022/01/10 01:43:10;;;;;;;52.08;21.00;;;;;;;7.22;84.41;98296.97;3124965;28;20124;-70
2022/01/10 01:44:42;;;;;;;46.83;19.17;;;;;;;7.25;84.25;98301.97;3123762;28;20056;-69
2022/01/10 01:46:13;;;;;;;46.63;19.17;;;;;;;7.19;84.35;98287.59;3126137;28;20060;-69
2022/01/10 01:47:45;;;;;;;45.28;18.88;;;;;;;7.04;84.07;98262.56;3126065;28;20044;-69
2022/01/10 01:49:17;;;;;;;46.53;18.10;;;;;;;7.26;84.18;98298.44;3124277;28;20052;-69
2022/01/10 01:50:49;;;;;;;48.15;18.30;;;;;;;7.28;84.06;98294.03;3126472;28;20130;-69
2022/01/10 01:52:20;;;;;;;47.00;18.38;;;;;;;7.29;84.13;98291.34;3124566;28;20480;-69
2022/01/10 01:53:53;;;;;;;45.63;17.83;;;;;;;7.24;84.22;98279.56;3125914;28;20096;-69
2022/01/10 01:55:25;;;;;;;44.10;18.63;;;;;;;7.29;84.47;98286.16;3126096;28;20530;-69
2022/01/10 01:56:58;;;;;;;42.75;17.75;;;;;;;7.30;84.25;98287.00;3123945;28;20071;-69
2022/01/10 01:58:30;;;;;;;44.80;17.33;;;;;;;7.23;84.68;98280.50;3126105;28;20569;-69
2022/01/10 02:00:02;;;;;;;45.20;18.65;;;;;;;7.26;84.45;98282.91;3126150;28;20426;-69
2022/01/10 02:01:34;;;;;;;47.47;18.67;;;;;;;7.24;84.14;98284.75;3123608;28;20049;-69
2022/01/10 02:03:06;;;;;;;39.70;19.17;;;;;;;7.26;84.34;98281.16;3127741;28;20053;-69
2022/01/10 02:04:38;;;;;;;41.75;18.40;;;;;;;7.25;84.46;98283.84;3125585;28;20053;-69
2022/01/10 02:06:10;;;;;;;44.17;19.25;;;;;;;7.26;84.47;98283.75;3124136;28;20067;-69
2022/01/10 02:07:42;;;;;;;43.78;17.50;;;;;;;7.26;84.46;98282.91;3115229;28;20058;-69
2022/01/10 02:09:17;;;;;;;43.92;18.02;;;;;;;7.24;84.38;98276.97;3121664;28;20130;-69
2022/01/10 02:10:49;;;;;;;46.33;17.77;;;;;;;7.26;84.22;98282.91;3123067;28;20103;-69
2022/01/10 02:12:19;;;;;;;39.60;18.15;;;;;;;7.26;84.45;98283.75;3126545;28;20486;-69
2022/01/10 02:13:51;;;;;;;42.30;18.42;;;;;;;7.23;84.46;98286.50;3124184;28;20114;-70
2022/01/10 02:15:31;;;;;;;36.28;17.13;;;;;;;7.24;84.44;98292.50;3125518;28;20115;-69
2022/01/10 02:17:05;;;;;;;39.92;16.42;;;;;;;7.22;84.36;98291.78;3120607;28;20083;-70
2022/01/10 02:18:38;;;;;;;40.72;17.80;;;;;;;7.17;84.37;98288.59;3122911;28;20050;-69
2022/01/10 02:20:12;;;;;;;38.72;16.98;;;;;;;7.10;84.47;98276.91;3125881;28;20119;-69
2022/01/10 02:21:44;;;;;;;47.22;17.98;;;;;;;7.06;84.86;98287.44;3128474;28;20056;-69
2022/01/10 02:23:16;;;;;;;47.47;19.08;;;;;;;6.97;84.86;98269.81;3129023;28;20045;-69
2022/01/10 02:24:48;;;;;;;46.88;19.08;;;;;;;7.04;84.95;98283.28;3122063;28;20056;-69
2022/01/10 02:26:20;;;;;;;44.67;18.60;;;;;;;7.00;85.07;98280.00;3123431;28;20068;-69
2022/01/10 02:27:51;;;;;;;46.33;19.45;;;;;;;6.94;85.03;98280.34;3127230;28;20560;-69
2022/01/10 02:29:23;;;;;;;48.10;19.77;;;;;;;6.90;85.40;98285.78;3131052;28;20158;-70
2022/01/10 02:30:55;;;;;;;48.90;20.38;;;;;;;6.82;85.60;98278.41;3130900;28;20111;-69
2022/01/10 02:32:27;;;;;;;46.10;18.97;;;;;;;6.79;85.93;98287.19;3128142;28;20053;-69
2022/01/10 02:33:59;;;;;;;49.38;20.40;;;;;;;6.72;86.16;98280.69;3131107;28;20619;-69
2022/01/10 02:35:35;;;;;;;51.70;20.23;;;;;;;6.74;86.09;98281.41;3128294;28;20041;-69
2022/01/10 02:37:07;;;;;;;51.28;20.08;;;;;;;6.69;86.32;98280.00;3129694;28;20811;-70
2022/01/10 02:38:46;;;;;;;51.45;20.25;;;;;;;6.69;86.40;98277.44;3131195;28;20111;-69
2022/01/10 02:40:19;;;;;;;53.45;19.92;;;;;;;6.57;86.86;98268.56;3132689;28;20717;-69
2022/01/10 02:41:51;;;;;;;57.78;21.73;;;;;;;6.59;87.05;98283.06;3132520;28;20049;-69
2022/01/10 02:43:22;;;;;;;57.08;20.25;;;;;;;6.56;87.19;98272.06;3132230;28;20057;-69
2022/01/10 02:47:38;;;;;;;62.30;21.80;;;;;;;6.45;87.86;98274.38;3037105;29;20164;-69
2022/01/10 02:49:11;;;;;;;53.45;22.13;;;;;;;6.51;87.82;98276.66;3064769;28;20054;-68
2022/01/10 02:50:44;;;;;;;51.75;20.20;;;;;;;6.54;87.69;98279.91;3107732;28;20054;-68
2022/01/10 02:52:16;;;;;;;;;;;;;;;6.37;87.86;98277.38;3108829;28;20065;-68
2022/01/10 02:53:48;;;;;;;51.70;19.50;;;;;;;6.43;88.13;98273.63;3108415;28;19963;-68
2022/01/10 02:55:20;;;;;;;46.83;20.00;;;;;;;6.50;88.12;98277.56;3103684;28;20085;-69
2022/01/10 02:56:53;;;;;;;57.55;20.98;;;;;;;6.46;87.67;98260.53;3107086;28;20096;-68
2022/01/10 02:58:25;;;;;;;47.70;20.35;;;;;;;6.58;87.74;98284.00;3107993;28;20095;-68
2022/01/10 02:59:57;;;;;;;55.63;21.05;;;;;;;6.62;87.98;98282.06;3108641;28;20538;-68
2022/01/10 03:01:29;;;;;;;50.22;20.58;;;;;;;6.68;87.50;98284.31;3105806;28;20423;-68
2022/01/10 03:03:06;;;;;;;46.13;20.70;;;;;;;6.70;87.57;98273.91;3108402;28;20545;-68
2022/01/10 03:04:38;;;;;;;50.47;20.73;;;;;;;6.57;87.64;98248.72;3108585;28;20111;-68
2022/01/10 03:06:12;;;;;;;51.67;21.73;;;;;;;6.84;87.55;98276.59;3105416;28;20092;-68
2022/01/10 03:07:45;;;;;;;44.90;19.13;;;;;;;6.86;87.45;98269.56;3109534;28;20053;-68
2022/01/10 03:09:17;;;;;;;45.05;19.50;;;;;;;6.84;87.43;98269.66;3108028;28;20054;-68
2022/01/10 03:10:49;;;;;;;42.35;18.30;;;;;;;6.86;87.15;98268.72;3106823;28;20041;-68
2022/01/10 03:12:21;;;;;;;54.70;19.65;;;;;;;6.83;87.15;98264.56;3108508;28;20050;-69
2022/01/10 03:13:53;;;;;;;47.47;19.63;;;;;;;6.95;87.19;98269.09;3107758;28;20115;-68
2022/01/10 03:15:25;;;;;;;49.08;19.10;;;;;;;6.98;87.11;98271.50;3106619;28;20510;-68
2022/01/10 03:16:57;;;;;;;42.67;17.98;;;;;;;7.02;86.75;98274.75;3108560;28;20061;-68
2022/01/10 03:18:29;;;;;;;50.33;18.60;;;;;;;7.02;87.13;98273.00;3106786;28;20050;-68
2022/01/10 03:20:00;;;;;;;42.97;17.08;;;;;;;7.02;86.80;98270.41;3108693;28;20064;-68
2022/01/10 03:21:35;;;;;;;47.97;18.17;;;;;;;7.08;86.78;98279.59;3108597;28;20061;-68
2022/01/10 03:23:07;;;;;;;44.97;18.63;;;;;;;7.09;86.75;98277.84;3105889;28;20129;-68
2022/01/10 03:24:38;;;;;;;41.50;17.50;;;;;;;7.10;86.69;98276.91;3107857;28;20526;-68
2022/01/10 03:26:10;;;;;;;50.42;19.77;;;;;;;7.15;86.47;98290.44;3108043;28;20050;-68
2022/01/10 03:27:42;;;;;;;53.88;20.83;;;;;;;7.16;86.38;98281.75;3106701;28;20069;-69
2022/01/10 03:29:13;;;;;;;52.50;19.02;;;;;;;7.19;86.47;98284.19;3107846;28;20061;-68
2022/01/10 03:30:45;;;;;;;44.20;17.75;;;;;;;7.21;86.47;98284.91;3107927;28;20046;-67
2022/01/10 03:32:17;;;;;;;51.38;20.25;;;;;;;7.17;86.33;98283.44;3106341;28;20112;-68
2022/01/10 03:33:50;;;;;;;45.20;18.67;;;;;;;7.17;86.36;98280.84;3107776;28;20058;-67
2022/01/10 03:35:22;;;;;;;47.72;19.40;;;;;;;7.16;86.22;98287.78;3107654;28;20049;-67
2022/01/10 03:36:56;;;;;;;52.10;18.92;;;;;;;7.19;86.16;98289.38;3107587;28;20420;-67
2022/01/10 03:38:28;;;;;;;50.45;19.67;;;;;;;7.20;86.36;98296.19;3103055;28;20129;-67
2022/01/10 03:40:00;;;;;;;49.25;20.58;;;;;;;7.21;86.24;98293.50;3103154;28;20361;-68
2022/01/10 03:41:31;;;;;;;43.97;17.63;;;;;;;7.23;86.26;98296.03;3108163;28;20045;-68
2022/01/10 03:43:04;;;;;;;43.60;18.45;;;;;;;7.26;86.33;98303.63;3108276;28;20061;-68
2022/01/10 03:44:35;;;;;;;52.47;19.73;;;;;;;7.24;86.28;98301.09;3106109;28;20472;-68
2022/01/10 03:46:07;;;;;;;54.42;18.90;;;;;;;7.28;85.82;98301.78;3117638;28;20117;-68
2022/01/10 03:47:39;;;;;;;51.90;19.63;;;;;;;7.23;85.97;98304.63;3132515;28;20049;-68
2022/01/10 03:49:11;;;;;;;40.72;18.20;;;;;;;7.29;86.12;98309.47;3131462;28;20150;-68
2022/01/10 03:50:43;;;;;;;46.72;19.05;;;;;;;7.25;86.16;98301.97;3132012;28;20060;-68
2022/01/10 03:52:16;;;;;;;50.20;19.90;;;;;;;7.33;85.97;98310.13;3131943;28;20102;-68
2022/01/10 03:53:48;;;;;;;42.60;18.60;;;;;;;7.35;85.91;98317.81;3130832;28;20056;-68
2022/01/10 03:55:20;;;;;;;45.47;18.38;;;;;;;7.35;85.98;98318.66;3129118;28;20394;-68
2022/01/10 03:56:52;;;;;;;41.05;18.20;;;;;;;7.35;85.78;98316.06;3131750;28;20052;-69
2022/01/10 03:58:24;;;;;;;44.92;19.33;;;;;;;7.39;85.81;98316.72;3130323;28;20481;-68
2022/01/10 03:59:56;;;;;;;43.10;18.65;;;;;;;7.41;85.96;98313.13;3132544;28;20508;-68
2022/01/10 04:01:28;;;;;;;40.67;17.50;;;;;;;7.41;85.72;98313.13;3130408;28;20481;-68
2022/01/10 04:03:04;;;;;;;43.15;19.80;;;;;;;7.43;85.73;98316.47;3132747;28;20045;-69
2022/01/10 04:04:38;;;;;;;44.60;18.60;;;;;;;7.43;86.08;98313.88;3132508;28;20044;-69
2022/01/10 04:06:10;;;;;;;37.45;16.98;;;;;;;7.45;85.77;98318.97;3129518;28;20049;-68
2022/01/10 04:07:43;;;;;;;38.63;17.33;;;;;;;7.44;85.75;98312.94;3131288;28;20517;-69
2022/01/10 04:09:17;;;;;;;43.85;17.20;;;;;;;7.42;86.02;98312.19;3127995;28;20565;-68
2022/01/10 04:10:49;;;;;;;38.33;17.13;;;;;;;7.47;85.72;98315.38;3129923;28;20132;-67
2022/01/10 04:12:21;;;;;;;39.72;16.90;;;;;;;7.46;85.74;98310.28;3133522;28;20496;-67
2022/01/10 04:13:53;;;;;;;44.22;18.73;;;;;;;7.47;85.44;98317.97;3130425;28;20080;-69
2022/01/10 04:15:25;;;;;;;37.45;16.30;;;;;;;7.45;85.57;98317.22;3132058;28;20121;-66
2022/01/10 04:16:57;;;;;;;34.25;15.68;;;;;;;7.50;85.87;98328.16;3132415;28;20056;-69
2022/01/10 04:18:29;;;;;;;37.67;16.58;;;;;;;7.50;85.86;98328.16;3131428;28;20161;-67
2022/01/10 04:20:01;;;;;;;39.50;17.33;;;;;;;7.43;85.95;98320.81;3130236;28;20048;-67
2022/01/10 04:21:33;;;;;;;35.53;16.63;;;;;;;7.53;85.71;98332.31;3132218;28;20093;-67
2022/01/10 04:23:06;;;;;;;38.28;16.65;;;;;;;7.55;85.60;98337.44;3129366;28;20127;-67
2022/01/10 04:24:38;;;;;;;40.80;17.08;;;;;;;7.52;85.51;98341.84;3132100;28;20060;-67
2022/01/10 04:26:10;;;;;;;39.22;17.55;;;;;;;7.50;85.70;98328.16;3132480;28;20098;-68
2022/01/10 04:27:42;;;;;;;41.30;17.92;;;;;;;7.51;85.71;98329.84;3129073;28;20118;-68
2022/01/10 04:29:14;;;;;;;32.30;15.95;;;;;;;7.48;85.71;98330.00;3131781;28;20057;-68
2022/01/10 04:30:45;;;;;;;36.92;16.83;;;;;;;7.51;85.43;98329.84;3132118;28;20134;-68
2022/01/10 04:32:17;;;;;;;31.40;13.98;;;;;;;7.48;85.63;98324.81;3129727;28;20048;-68
2022/01/10 04:33:48;;;;;;;36.33;15.30;;;;;;;7.44;85.46;98325.91;3132227;28;20132;-67
2022/01/10 04:35:20;;;;;;;37.08;16.63;;;;;;;7.43;85.56;98326.84;3130331;28;20049;-67
2022/01/10 04:36:52;;;;;;;33.17;14.82;;;;;;;7.44;85.60;98327.66;3131095;28;20488;-68
2022/01/10 04:38:26;;;;;;;35.03;15.43;;;;;;;7.42;85.73;98330.31;3132430;28;20049;-67
2022/01/10 04:39:58;;;;;;;38.20;16.42;;;;;;;7.45;85.81;98334.50;3131268;28;20060;-67
2022/01/10 04:41:30;;;;;;;38.22;16.33;;;;;;;7.42;85.49;98330.31;3130186;28;20587;-67
2022/01/10 04:43:02;;;;;;;41.50;16.55;;;;;;;7.42;85.61;98332.91;3132051;28;20053;-67
2022/01/10 04:44:34;;;;;;;42.50;17.23;;;;;;;7.44;85.51;98336.25;3130314;28;20049;-68
2022/01/10 04:46:04;;;;;;;36.17;17.20;;;;;;;7.42;85.55;98330.31;3131601;28;20057;-70
2022/01/10 04:47:37;;;;;;;40.25;16.33;;;;;;;7.46;85.40;98334.44;3132243;28;20183;-69
2022/01/10 04:49:17;;;;;;;38.67;15.95;;;;;;;7.40;85.47;98324.41;3128802;28;20049;-68
2022/01/10 04:51:11;;;;;;;36.95;16.27;;;;;;;7.41;85.65;98338.19;3131699;28;20072;-68
2022/01/10 04:52:44;;;;;;;40.03;17.23;;;;;;;7.28;86.09;98338.03;3129731;28;20423;-68
2022/01/10 04:54:18;;;;;;;36.40;17.13;;;;;;;7.31;85.96;98343.06;3129274;28;20418;-69
2022/01/10 04:55:49;;;;;;;40.42;17.35;;;;;;;7.32;86.22;98334.34;3123357;28;20049;-69
2022/01/10 04:57:22;;;;;;;38.50;16.60;;;;;;;7.33;86.12;98324.81;3130160;28;20068;-69
2022/01/10 04:58:54;;;;;;;37.47;16.65;;;;;;;7.41;85.72;98335.59;3130488;28;20048;-69
2022/01/10 05:00:26;;;;;;;37.35;17.52;;;;;;;7.42;85.87;98335.50;3132038;28;20045;-69
2022/01/10 05:01:58;;;;;;;39.65;16.38;;;;;;;7.44;86.04;98332.84;3128444;28;20118;-68
2022/01/10 05:03:30;;;;;;;33.15;16.27;;;;;;;7.47;85.86;98338.69;3131379;28;20086;-69
2022/01/10 05:05:02;;;;;;;39.92;17.33;;;;;;;7.48;85.59;98342.97;3131666;28;20049;-69
2022/01/10 05:06:34;;;;;;;41.80;17.42;;;;;;;7.42;85.82;98329.50;3129589;28;20052;-68
2022/01/10 05:08:05;;;;;;;37.00;15.82;;;;;;;7.51;85.72;98344.50;3131845;28;20053;-69
2022/01/10 05:09:39;;;;;;;42.00;17.10;;;;;;;7.55;85.76;98345.22;3129175;28;20075;-69
2022/01/10 05:11:10;;;;;;;39.30;17.48;;;;;;;7.54;85.89;98339.16;3129194;28;20127;-69
2022/01/10 05:12:42;;;;;;;41.22;17.13;;;;;;;7.55;85.46;98340.84;3132245;28;20053;-69
2022/01/10 05:14:14;;;;;;;39.38;16.63;;;;;;;7.56;85.64;98347.69;3129731;28;20052;-70
2022/01/10 05:16:01;;;;;;;31.88;15.40;;;;;;;7.59;85.82;98346.69;3130116;28;20491;-68
2022/01/10 05:17:33;;;;;;;36.50;15.93;;;;;;;7.56;85.86;98346.88;3122891;28;20190;-69
2022/01/10 05:19:05;;;;;;;41.08;17.65;;;;;;;7.58;85.56;98347.63;3127079;28;20049;-69
2022/01/10 05:20:36;;;;;;;57.70;25.08;;;;;;;7.61;85.61;98347.44;3131778;28;20849;-69
2022/01/10 05:22:08;;;;;;;58.33;25.65;;;;;;;7.59;85.56;98347.53;3130026;28;20055;-69
2022/01/10 05:23:40;;;;;;;44.42;20.38;;;;;;;7.57;85.83;98349.34;3130635;28;20053;-69
2022/01/10 05:25:12;;;;;;;41.58;17.85;;;;;;;7.56;85.82;98344.28;3131504;28;20111;-68
2022/01/10 05:26:44;;;;;;;36.40;16.40;;;;;;;7.57;85.69;98349.34;3130339;28;20045;-68
2022/01/10 05:28:19;;;;;;;37.83;16.75;;;;;;;7.58;85.80;98356.22;3129719;28;20103;-69
2022/01/10 05:29:51;;;;;;;41.70;17.58;;;;;;;7.56;85.69;98350.28;3131704;28;20364;-69
2022/01/10 05:31:24;;;;;;;35.55;16.58;;;;;;;7.58;85.81;98352.81;3129481;28;20379;-68
2022/01/10 05:32:54;;;;;;;38.13;18.48;;;;;;;7.46;85.66;98342.19;3130275;28;20045;-70
2022/01/10 05:34:27;;;;;;;45.75;22.55;;;;;;;7.50;85.73;98350.63;3131436;28;20133;-69
2022/01/10 05:35:59;;;;;;;46.63;21.83;;;;;;;7.55;85.77;98358.16;3128905;28;20095;-69
2022/01/10 05:37:31;;;;;;;43.55;20.30;;;;;;;7.57;85.65;98361.47;3131353;28;20049;-70
2022/01/10 05:39:03;;;;;;;57.20;25.75;;;;;;;7.55;85.52;98360.75;3130057;28;20111;-69
2022/01/10 05:40:36;;;;;;;60.03;26.27;;;;;;;7.56;85.63;98362.41;3129820;28;20075;-69
2022/01/10 05:42:08;;;;;;;88.43;40.63;;;;;;;7.55;85.61;98366.75;3131487;28;20122;-69
2022/01/10 05:43:40;;;;;;;133.07;57.40;;;;;;;7.45;85.30;98352.63;3129993;28;20114;-69
2022/01/10 05:45:12;;;;;;;53.17;25.05;;;;;;;7.52;85.47;98377.28;3129337;28;20048;-68
2022/01/10 05:46:46;;;;;;;51.15;24.70;;;;;;;7.49;85.65;98372.28;3131002;28;20214;-69
2022/01/10 05:48:25;;;;;;;46.42;20.45;;;;;;;7.47;85.69;98374.94;3125882;28;20049;-69
2022/01/10 05:50:02;;;;;;;41.83;18.98;;;;;;;7.48;86.00;98376.63;3131216;28;20099;-69
2022/01/10 05:51:34;;;;;;;43.30;17.63;;;;;;;7.49;85.83;98378.28;3131382;28;20045;-68
2022/01/10 05:53:06;;;;;;;41.40;19.13;;;;;;;7.51;86.11;98381.66;3129091;28;20075;-68
2022/01/10 05:54:38;;;;;;;44.80;18.80;;;;;;;7.46;85.87;98373.28;3126341;28;20049;-69
2022/01/10 05:56:11;;;;;;;40.47;17.95;;;;;;;7.25;85.77;98338.22;3128718;28;20056;-68
2022/01/10 05:57:43;;;;;;;43.67;17.27;;;;;;;7.53;85.94;98382.38;3129379;28;20094;-68
2022/01/10 05:59:15;;;;;;;45.22;18.13;;;;;;;7.53;85.88;98390.13;3130405;28;20057;-68
2022/01/10 06:00:47;;;;;;;37.97;18.15;;;;;;;7.54;85.76;98390.97;3129885;28;20053;-69
2022/01/10 06:02:20;;;;;;;43.90;18.85;;;;;;;7.55;85.65;98384.06;3129352;28;20417;-69
2022/01/10 06:03:52;;;;;;;42.20;17.50;;;;;;;7.55;86.03;98381.47;3131586;28;20415;-69
2022/01/10 06:05:29;;;;;;;39.22;18.00;;;;;;;7.18;85.89;98327.34;3129282;28;20148;-69
2022/01/10 06:07:01;;;;;;;37.97;17.60;;;;;;;7.55;86.03;98392.66;3130778;28;20083;-69
2022/01/10 06:08:33;;;;;;;40.55;17.83;;;;;;;7.38;86.12;98361.69;3131282;28;20577;-69
2022/01/10 06:10:06;;;;;;;40.70;18.80;;;;;;;7.56;85.77;98393.50;3128637;28;20076;-68
2022/01/10 06:11:40;;;;;;;;;;;;;;;7.39;85.92;98403.00;3130922;28;20126;-68
2022/01/10 06:13:12;;;;;;;42.05;18.33;;;;;;;7.44;86.26;98400.19;3131453;28;19964;-68
2022/01/10 06:14:43;;;;;;;45.70;20.48;;;;;;;7.49;86.36;98400.78;3131614;28;20106;-68
2022/01/10 06:16:16;;;;;;;48.80;19.52;;;;;;;7.52;86.15;98403.19;3133389;28;20087;-70
2022/01/10 06:17:48;;;;;;;50.03;19.57;;;;;;;7.36;86.04;98369.50;3132408;28;20525;-69
2022/01/10 06:19:20;;;;;;;47.78;20.40;;;;;;;7.52;86.38;98398.84;3127086;28;20049;-69
2022/01/10 06:20:52;;;;;;;47.33;20.63;;;;;;;7.59;86.29;98403.69;3123668;28;20057;-69
2022/01/10 06:22:23;;;;;;;45.53;20.45;;;;;;;7.61;85.93;98399.25;3123787;28;20048;-69
2022/01/10 06:23:55;;;;;;;53.60;22.58;;;;;;;7.55;86.35;98389.25;3123987;28;20045;-69
2022/01/10 06:25:29;;;;;;;56.70;24.08;;;;;;;7.66;86.39;98399.81;3124336;28;20096;-69
2022/01/10 06:27:02;;;;;;;54.50;24.98;;;;;;;7.66;86.24;98407.59;3121698;28;20053;-69
2022/01/10 06:28:34;;;;;;;;;;;;;;;7.49;86.29;98400.78;3123691;28;20122;-69
2022/01/10 06:30:07;;;;;;;49.13;21.00;;;;;;;7.51;86.56;98399.78;3124139;28;19924;-69
2022/01/10 06:31:39;;;;;;;51.33;23.17;;;;;;;7.62;86.46;98404.34;3121153;28;20053;-69
2022/01/10 06:33:11;;;;;;;52.97;23.58;;;;;;;7.66;86.63;98405.88;3123537;28;20056;-68
2022/01/10 06:34:43;;;;;;;57.75;24.65;;;;;;;7.70;86.27;98404.75;3123427;28;20807;-69
2022/01/10 06:36:15;;;;;;;57.95;26.02;;;;;;;7.70;86.26;98404.75;3122971;28;20125;-69
2022/01/10 06:37:47;;;;;;;59.33;26.75;;;;;;;7.78;86.16;98409.53;3124153;28;20056;-69
2022/01/10 06:39:19;;;;;;;70.82;32.78;;;;;;;7.78;86.49;98417.31;3122803;28;20145;-69
2022/01/10 06:40:51;;;;;;;63.42;31.23;;;;;;;7.81;86.38;98416.28;3123698;28;20059;-69
2022/01/10 06:42:25;;;;;;;72.78;34.33;;;;;;;7.85;86.07;98416.03;3124127;28;20052;-69
2022/01/10 06:43:57;;;;;;;60.58;28.10;;;;;;;7.86;86.34;98422.88;3122440;28;20446;-69
2022/01/10 06:45:29;;;;;;;66.63;33.38;;;;;;;7.88;86.05;98418.44;3122218;28;20063;-69
2022/01/10 06:47:02;;;;;;;68.88;29.90;;;;;;;7.88;86.22;98415.84;3122980;28;20080;-69
2022/01/10 06:48:34;;;;;;;59.73;26.93;;;;;;;7.87;86.05;98419.38;3122613;28;20163;-69
2022/01/10 06:50:08;;;;;;;54.60;25.55;;;;;;;7.87;86.17;98416.78;3123617;28;20582;-69
2022/01/10 06:51:40;;;;;;;57.33;24.27;;;;;;;7.91;86.39;98423.44;3123479;28;20052;-70
2022/01/10 06:53:12;;;;;;;53.50;24.25;;;;;;;7.93;86.35;98420.78;3121953;28;20067;-68
2022/01/10 06:54:44;;;;;;;51.85;22.60;;;;;;;7.92;86.40;98419.09;3119371;28;20340;-67
2022/01/10 06:56:16;;;;;;;52.00;23.30;;;;;;;7.92;86.28;98419.94;3121690;28;20832;-70
2022/01/10 06:57:49;;;;;;;50.83;22.20;;;;;;;7.95;86.45;98424.13;3122964;28;20055;-68
2022/01/10 06:59:21;;;;;;;;;;;;;;;7.74;86.53;98424.38;3124818;28;20052;-66
2022/01/10 07:00:53;;;;;;;52.17;22.90;;;;;;;7.83;87.06;98414.44;3122481;28;20467;-66
2022/01/10 07:02:25;;;;;;;53.25;22.73;;;;;;;7.82;87.08;98411.00;3123648;28;20347;-65
2022/01/10 07:03:57;;;;;;;50.67;22.33;;;;;;;7.86;86.74;98411.66;3123732;28;20052;-70
2022/01/10 07:05:29;;;;;;;43.08;20.00;;;;;;;7.95;87.03;98426.69;3120192;28;20048;-68
2022/01/10 07:07:02;;;;;;;48.50;21.63;;;;;;;7.98;86.92;98421.34;3123058;28;20402;-68
2022/01/10 07:08:34;;;;;;;57.47;21.92;;;;;;;7.94;86.92;98418.09;3121867;28;20055;-69
2022/01/10 07:10:06;;;;;;;44.20;20.95;;;;;;;7.99;87.03;98423.03;3121236;28;23183;-68
2022/01/10 07:11:38;;;;;;;51.88;23.55;;;;;;;8.02;87.01;98425.44;3127680;28;20135;-69
2022/01/10 07:13:11;;;;;;;47.15;21.13;;;;;;;7.78;86.57;98386.22;3125740;28;20053;-68
2022/01/10 07:14:43;;;;;;;;;;;;;;;7.85;86.72;98430.75;3126345;28;20041;-69
2022/01/10 07:16:15;;;;;;;44.60;18.85;;;;;;;7.93;87.28;98428.56;3125930;28;20085;-67
2022/01/10 07:17:49;;;;;;;49.83;21.15;;;;;;;7.99;87.18;98428.22;3127186;28;20484;-66
2022/01/10 07:19:22;;;;;;;46.38;19.85;;;;;;;8.00;87.28;98429.06;3128459;28;20620;-68